Time;durP1;ratioP1;P1;durP2;ratioP2;P2;SDS_P1;SDS_P2;PMS_P1;PMS_P2;Temp;Humidity;BMP_temperature;BMP_pressure;BME280_temperature;BME280_humidity;BME280_pressure;Samples;Min_cycle;Max_cycle;Signal;HPM_P1;HPM_P2
2022/07/08 00:01:29;;;;;;;12.75;1.67;;;14.60;99.90;;;;;;5027438;28;20106;-78
2022/07/08 00:03:55;;;;;;;13.25;2.20;;;14.60;99.90;;;;;;5042471;28;20044;-78
2022/07/08 00:06:20;;;;;;;9.85;1.98;;;14.50;99.90;;;;;;5027752;28;20045;-77
2022/07/08 00:08:46;;;;;;;12.57;2.20;;;14.50;99.90;;;;;;5043135;28;20037;-77
2022/07/08 00:11:12;;;;;;;8.18;1.73;;;14.50;99.90;;;;;;5044226;28;20045;-75
2022/07/08 00:13:37;;;;;;;11.30;1.50;;;14.50;99.90;;;;;;5045001;28;20037;-77
2022/07/08 00:16:03;;;;;;;7.47;1.92;;;14.50;99.90;;;;;;5028936;28;20037;-77
2022/07/08 00:18:29;;;;;;;8.60;1.70;;;14.50;99.90;;;;;;5046838;28;20048;-77
2022/07/08 00:20:54;;;;;;;12.60;2.45;;;14.50;99.90;;;;;;5047126;28;20124;-77
2022/07/08 00:23:20;;;;;;;6.28;0.98;;;14.50;99.90;;;;;;5030413;28;20049;-76
2022/07/08 00:25:46;;;;;;;6.40;1.50;;;14.50;99.90;;;;;;5045160;28;20091;-77
2022/07/08 00:28:11;;;;;;;10.10;1.40;;;14.40;99.90;;;;;;5029292;28;20079;-77
2022/07/08 00:30:37;;;;;;;13.38;1.30;;;14.40;99.90;;;;;;5030399;28;20049;-77
2022/07/08 00:33:03;;;;;;;15.00;2.40;;;14.40;99.90;;;;;;5046922;28;20075;-77
2022/07/08 00:35:28;;;;;;;11.43;1.98;;;14.40;99.90;;;;;;5045400;28;20048;-77
2022/07/08 00:37:54;;;;;;;10.13;1.60;;;14.40;99.90;;;;;;5046991;28;20049;-77
2022/07/08 00:40:20;;;;;;;13.25;1.80;;;14.40;99.90;;;;;;5048817;28;20044;-76
2022/07/08 00:42:49;;;;;;;10.00;2.15;;;14.40;99.90;;;;;;5046052;28;20064;-77
2022/07/08 00:45:16;;;;;;;14.10;1.50;;;14.40;99.90;;;;;;5047898;28;20060;-77
2022/07/08 00:47:42;;;;;;;7.10;1.55;;;14.40;99.90;;;;;;5045684;28;20106;-76
2022/07/08 00:50:09;;;;;;;5.32;1.25;;;14.30;99.90;;;;;;5043931;28;20809;-77
2022/07/08 00:52:38;;;;;;;18.75;2.30;;;14.30;99.90;;;;;;5047065;28;20036;-76
2022/07/08 00:55:05;;;;;;;10.15;1.73;;;14.30;99.90;;;;;;5047489;28;20119;-76
2022/07/08 00:57:32;;;;;;;7.72;1.10;;;14.20;99.90;;;;;;5044402;28;20045;-77
2022/07/08 00:59:58;;;;;;;12.20;2.65;;;14.20;99.90;;;;;;5047194;28;20092;-77
2022/07/08 01:02:24;;;;;;;11.93;2.20;;;14.20;99.90;;;;;;5046836;28;20136;-76
2022/07/08 01:04:50;;;;;;;6.90;1.50;;;14.10;99.90;;;;;;5047571;28;20064;-77
2022/07/08 01:07:17;;;;;;;8.85;2.80;;;14.00;99.90;;;;;;5044384;28;20116;-76
2022/07/08 01:09:42;;;;;;;9.63;2.13;;;13.90;99.90;;;;;;5047302;28;20060;-76
2022/07/08 01:12:08;;;;;;;22.77;4.30;;;13.90;99.90;;;;;;5046309;28;20041;-76
2022/07/08 01:14:34;;;;;;;4.82;1.48;;;13.90;99.90;;;;;;5045833;28;20124;-77
2022/07/08 01:17:00;;;;;;;9.57;2.20;;;13.80;99.90;;;;;;5060988;28;20052;-76
2022/07/08 01:19:26;;;;;;;6.32;1.27;;;13.80;99.90;;;;;;5062987;28;20048;-77
2022/07/08 01:21:51;;;;;;;5.60;1.75;;;13.70;99.90;;;;;;5047564;28;20052;-76
2022/07/08 01:24:18;;;;;;;8.23;2.20;;;13.70;99.90;;;;;;5045347;28;20626;-77
2022/07/08 01:26:44;;;;;;;5.05;1.23;;;13.70;99.90;;;;;;5026872;28;20081;-76
2022/07/08 01:29:11;;;;;;;8.82;1.40;;;13.60;99.90;;;;;;5029011;28;20040;-76
2022/07/08 01:31:37;;;;;;;10.45;1.48;;;13.60;99.90;;;;;;5046629;28;20134;-77
2022/07/08 01:34:03;;;;;;;8.75;1.83;;;13.60;99.90;;;;;;5043086;28;20068;-76
2022/07/08 01:36:29;;;;;;;8.85;1.98;;;13.60;99.90;;;;;;5046702;28;20048;-76
2022/07/08 01:38:54;;;;;;;13.55;2.88;;;13.50;99.90;;;;;;5044217;28;20090;-77
2022/07/08 01:41:20;;;;;;;6.00;1.30;;;13.50;99.90;;;;;;5047950;28;20579;-76
2022/07/08 01:43:46;;;;;;;19.85;3.33;;;13.50;99.90;;;;;;5045793;28;20056;-77
2022/07/08 01:46:11;;;;;;;5.55;1.55;;;13.40;99.90;;;;;;5046860;28;20049;-76
2022/07/08 01:51:03;;;;;;;6.97;1.10;;;13.50;99.90;;;;;;5037357;22;20061;-77
2022/07/08 01:53:29;;;;;;;11.45;1.85;;;13.40;99.90;;;;;;5044050;28;20053;-77
2022/07/08 01:55:54;;;;;;;6.35;1.50;;;13.50;99.90;;;;;;5045941;28;20037;-76
2022/07/08 01:58:21;;;;;;;5.47;1.33;;;13.40;99.90;;;;;;5043424;28;20118;-78
2022/07/08 02:00:46;;;;;;;7.40;1.65;;;13.30;99.90;;;;;;5046525;28;20041;-77
2022/07/08 02:03:12;;;;;;;7.63;1.88;;;13.30;99.90;;;;;;5046489;28;20072;-77
2022/07/08 02:05:37;;;;;;;4.18;2.03;;;13.30;99.90;;;;;;5059032;28;20101;-77
2022/07/08 02:08:03;;;;;;;7.35;1.80;;;13.30;99.90;;;;;;5060996;28;20059;-77
2022/07/08 02:12:18;;;;;;;9.38;2.63;;;13.20;99.90;;;;;;5065058;28;20139;-77
2022/07/08 02:13:19;;;;;;;10.00;2.05;;;13.20;99.90;;;;;;5052057;28;20115;-76
2022/07/08 02:15:45;;;;;;;13.35;3.47;;;13.20;99.90;;;;;;5061223;28;20094;-76
2022/07/08 02:18:11;;;;;;;17.30;2.38;;;13.10;99.90;;;;;;5062306;28;20092;-76
2022/07/08 02:20:37;;;;;;;11.45;2.15;;;13.00;99.90;;;;;;5028252;28;20080;-76
2022/07/08 02:23:02;;;;;;;8.93;1.73;;;13.10;99.90;;;;;;5045011;28;20040;-76
2022/07/08 02:25:28;;;;;;;8.73;2.45;;;13.10;99.90;;;;;;5044026;28;20041;-77
2022/07/08 02:27:54;;;;;;;13.23;1.80;;;13.10;99.90;;;;;;5050274;28;20079;-77
2022/07/08 02:30:20;;;;;;;10.25;1.35;;;13.00;99.90;;;;;;5028610;28;20478;-77
2022/07/08 02:32:46;;;;;;;5.43;1.70;;;13.10;99.90;;;;;;5050698;28;20131;-76
2022/07/08 02:35:11;;;;;;;6.28;1.58;;;13.10;99.90;;;;;;5063037;28;20461;-77
2022/07/08 02:37:37;;;;;;;6.03;2.53;;;13.10;99.90;;;;;;5059242;28;20109;-77
2022/07/08 02:40:03;;;;;;;6.97;1.30;;;12.90;99.90;;;;;;5044349;28;20048;-77
2022/07/08 02:42:29;;;;;;;9.98;2.17;;;13.00;99.90;;;;;;5056804;28;20466;-77
2022/07/08 02:44:56;;;;;;;9.80;1.95;;;13.00;99.90;;;;;;5052500;28;20056;-77
2022/07/08 02:47:21;;;;;;;6.20;2.10;;;12.90;99.90;;;;;;5048740;28;20491;-77
2022/07/08 02:49:47;;;;;;;7.50;2.85;;;12.80;99.90;;;;;;5062719;28;20096;-78
2022/07/08 02:52:13;;;;;;;5.93;2.10;;;12.80;99.90;;;;;;5059518;28;20045;-77
2022/07/08 02:54:38;;;;;;;10.20;2.55;;;12.80;99.90;;;;;;5052896;28;20236;-76
2022/07/08 02:57:04;;;;;;;8.40;1.50;;;12.90;99.90;;;;;;5064897;28;20048;-77
2022/07/08 02:59:30;;;;;;;11.38;2.95;;;12.80;99.90;;;;;;5054053;28;20124;-77
2022/07/08 03:01:56;;;;;;;7.47;2.88;;;12.90;99.90;;;;;;5043423;28;20470;-77
2022/07/08 03:04:21;;;;;;;10.25;2.15;;;12.80;99.90;;;;;;5044386;28;20045;-78
2022/07/08 03:06:47;;;;;;;7.10;1.30;;;12.90;99.90;;;;;;5045820;28;20052;-77
2022/07/08 03:09:13;;;;;;;9.38;3.15;;;12.90;99.90;;;;;;5053381;28;20037;-78
2022/07/08 03:11:38;;;;;;;5.18;1.40;;;12.90;99.90;;;;;;5049376;28;20053;-77
2022/07/08 03:14:04;;;;;;;11.50;1.75;;;12.90;99.90;;;;;;5037485;28;20411;-78
2022/07/08 03:16:30;;;;;;;13.93;2.13;;;12.80;99.90;;;;;;5064866;28;20075;-76
2022/07/08 03:18:55;;;;;;;9.48;2.35;;;12.90;99.90;;;;;;5061157;28;20055;-76
2022/07/08 03:21:21;;;;;;;5.10;2.08;;;13.00;99.90;;;;;;5053227;28;20041;-76
2022/07/08 03:23:47;;;;;;;9.25;3.38;;;13.00;99.90;;;;;;5050781;28;20051;-76
2022/07/08 03:26:13;;;;;;;10.25;2.25;;;13.10;99.90;;;;;;5019103;28;20144;-75
2022/07/08 03:28:38;;;;;;;6.53;1.60;;;12.90;99.90;;;;;;5026953;28;20059;-74
2022/07/08 03:31:04;;;;;;;7.65;2.20;;;12.90;99.90;;;;;;5043800;28;20040;-75
2022/07/08 03:33:29;;;;;;;16.27;2.97;;;12.90;99.90;;;;;;5028553;28;20144;-75
2022/07/08 03:35:55;;;;;;;9.82;2.40;;;12.80;99.90;;;;;;5037460;28;20849;-76
2022/07/08 03:38:21;;;;;;;11.20;1.63;;;12.90;99.90;;;;;;5044633;28;20084;-76
2022/07/08 03:43:30;;;;;;;7.05;1.73;;;12.70;99.90;;;;;;5040235;28;20045;-75
2022/07/08 03:45:56;;;;;;;10.77;2.47;;;12.70;99.90;;;;;;5064480;28;20053;-76
2022/07/08 03:48:22;;;;;;;7.70;1.73;;;12.70;99.90;;;;;;5062793;28;20552;-76
2022/07/08 03:50:47;;;;;;;20.55;2.78;;;12.70;99.90;;;;;;5055658;28;20057;-75
2022/07/08 03:53:13;;;;;;;9.55;1.67;;;12.60;99.90;;;;;;5045867;28;20124;-75
2022/07/08 03:55:38;;;;;;;5.78;2.15;;;12.70;99.90;;;;;;5066070;28;20066;-76
2022/07/08 03:58:04;;;;;;;10.07;2.95;;;12.70;99.90;;;;;;5069469;28;20041;-75
2022/07/08 04:00:30;;;;;;;6.03;1.95;;;12.70;99.90;;;;;;5047304;28;20476;-75
2022/07/08 04:02:55;;;;;;;12.05;3.30;;;12.80;99.90;;;;;;5032555;28;20041;-77
2022/07/08 04:05:21;;;;;;;7.93;2.63;;;12.90;99.90;;;;;;5062645;28;20051;-75
2022/07/08 04:07:46;;;;;;;9.60;3.65;;;12.90;99.90;;;;;;5067398;28;20048;-75
2022/07/08 04:10:12;;;;;;;9.00;1.77;;;12.80;99.90;;;;;;5067759;28;20255;-75
2022/07/08 04:12:38;;;;;;;8.05;2.35;;;12.90;99.90;;;;;;5064632;28;20087;-75
2022/07/08 04:15:04;;;;;;;6.18;2.17;;;12.90;99.90;;;;;;5042302;28;20040;-76
2022/07/08 04:17:29;;;;;;;7.22;2.03;;;12.80;99.90;;;;;;5030820;28;20044;-76
2022/07/08 04:19:55;;;;;;;9.63;2.10;;;12.80;99.90;;;;;;5047966;28;20068;-75
2022/07/08 04:22:21;;;;;;;9.85;1.67;;;13.00;99.90;;;;;;5048840;28;20436;-76
2022/07/08 04:24:46;;;;;;;9.90;2.05;;;13.10;99.90;;;;;;5052985;28;20130;-76
2022/07/08 04:27:12;;;;;;;9.27;2.78;;;13.00;99.90;;;;;;5047167;28;20057;-75
2022/07/08 04:29:37;;;;;;;10.55;1.77;;;13.10;99.90;;;;;;5047048;28;20061;-75
2022/07/08 04:32:04;;;;;;;7.22;2.35;;;13.10;99.90;;;;;;5028049;28;20469;-76
2022/07/08 04:34:29;;;;;;;6.30;1.52;;;13.30;99.90;;;;;;5054410;28;20044;-77
2022/07/08 04:36:55;;;;;;;9.05;2.25;;;13.30;99.90;;;;;;5068765;28;20059;-77
2022/07/08 04:39:21;;;;;;;8.27;2.55;;;13.30;99.90;;;;;;5069324;28;20040;-77
2022/07/08 04:41:46;;;;;;;9.60;1.90;;;13.30;99.90;;;;;;5064873;28;20496;-76
2022/07/08 04:44:12;;;;;;;11.68;2.33;;;13.40;99.90;;;;;;5051695;28;20032;-76
2022/07/08 04:46:37;;;;;;;10.57;1.83;;;13.40;99.90;;;;;;5036013;28;20061;-76
2022/07/08 04:49:03;;;;;;;16.23;3.85;;;13.50;99.90;;;;;;5047320;28;20064;-75
2022/07/08 04:51:29;;;;;;;7.15;1.80;;;13.50;99.90;;;;;;5047203;28;20053;-76
2022/07/08 04:53:55;;;;;;;7.55;2.70;;;13.60;99.90;;;;;;5054161;28;20518;-76
2022/07/08 04:56:20;;;;;;;8.45;2.08;;;13.50;99.90;;;;;;5069004;28;20589;-76
2022/07/08 04:58:46;;;;;;;12.30;2.53;;;13.70;99.90;;;;;;5057381;28;20045;-77
2022/07/08 05:01:13;;;;;;;11.05;2.03;;;13.60;99.90;;;;;;5045059;28;20114;-76
2022/07/08 05:03:39;;;;;;;12.40;2.78;;;13.80;99.90;;;;;;5044872;28;20083;-77
2022/07/08 05:06:05;;;;;;;6.55;1.70;;;13.90;99.90;;;;;;5043081;28;20052;-77
2022/07/08 05:08:31;;;;;;;14.95;3.72;;;13.90;99.90;;;;;;5046351;28;20463;-77
2022/07/08 05:10:57;;;;;;;8.77;2.08;;;14.00;99.90;;;;;;5046008;28;20052;-77
2022/07/08 05:13:22;;;;;;;13.80;2.25;;;14.30;99.90;;;;;;5047032;28;20072;-77
2022/07/08 05:15:48;;;;;;;13.85;3.08;;;14.40;99.90;;;;;;5048128;28;20048;-76
2022/07/08 05:18:14;;;;;;;12.60;1.75;;;14.50;99.90;;;;;;5057236;28;20053;-78
2022/07/08 05:20:39;;;;;;;9.23;2.15;;;14.80;99.90;;;;;;5045111;28;20163;-77
2022/07/08 05:23:05;;;;;;;17.63;2.28;;;14.80;99.90;;;;;;5046698;28;20059;-77
2022/07/08 05:25:31;;;;;;;9.15;2.10;;;14.90;99.90;;;;;;5055426;28;20116;-77
2022/07/08 05:27:56;;;;;;;11.18;1.45;;;15.10;99.90;;;;;;5050029;28;20385;-77
2022/07/08 05:30:22;;;;;;;7.50;1.70;;;15.30;99.90;;;;;;5053473;28;20146;-75
2022/07/08 05:32:47;;;;;;;16.60;3.05;;;15.30;99.90;;;;;;5044437;28;20183;-75
2022/07/08 05:35:13;;;;;;;8.77;2.10;;;15.30;99.90;;;;;;5027597;28;20403;-76
2022/07/08 05:37:39;;;;;;;8.95;1.58;;;15.40;99.90;;;;;;5046525;28;20053;-76
2022/07/08 05:40:06;;;;;;;21.92;2.80;;;15.50;99.90;;;;;;5046148;28;20049;-77
2022/07/08 05:42:31;;;;;;;9.40;1.58;;;15.50;99.90;;;;;;5045707;28;20088;-75
2022/07/08 05:44:57;;;;;;;10.00;2.22;;;15.40;99.90;;;;;;5049826;28;20068;-75
2022/07/08 05:47:23;;;;;;;16.95;3.20;;;15.40;99.90;;;;;;5066626;28;20049;-76
2022/07/08 05:49:48;;;;;;;13.43;1.60;;;15.50;99.90;;;;;;5044050;28;20056;-73
2022/07/08 05:52:14;;;;;;;15.00;2.47;;;15.50;99.90;;;;;;5048025;28;20325;-76
2022/07/08 05:54:45;;;;;;;8.23;1.58;;;15.50;99.90;;;;;;5033975;28;20094;-76
2022/07/08 05:57:11;;;;;;;9.55;2.95;;;15.70;99.90;;;;;;5047042;28;20049;-76
2022/07/08 05:59:36;;;;;;;5.30;1.67;;;15.70;99.90;;;;;;5043502;28;20032;-76
2022/07/08 06:02:02;;;;;;;12.43;3.13;;;15.70;99.90;;;;;;5045933;28;20052;-76
2022/07/08 06:04:28;;;;;;;7.78;2.13;;;15.70;99.90;;;;;;5025279;28;20423;-76
2022/07/08 06:06:53;;;;;;;19.65;2.72;;;15.70;99.90;;;;;;5044568;28;20041;-75
2022/07/08 06:09:19;;;;;;;9.13;2.47;;;15.80;99.90;;;;;;5046551;28;20037;-76
2022/07/08 06:11:44;;;;;;;12.93;3.72;;;15.80;99.90;;;;;;5030217;28;20407;-76
2022/07/08 06:14:10;;;;;;;7.65;2.70;;;15.80;99.90;;;;;;5028662;28;20042;-76
2022/07/08 06:16:36;;;;;;;8.38;1.55;;;15.80;99.90;;;;;;5055504;28;20143;-76
2022/07/08 06:19:02;;;;;;;7.00;1.92;;;15.90;99.90;;;;;;5047203;28;20076;-75
2022/07/08 06:21:28;;;;;;;7.25;2.55;;;16.10;99.90;;;;;;5048898;28;20532;-77
2022/07/08 06:23:53;;;;;;;12.70;3.55;;;16.00;99.90;;;;;;5061384;28;20037;-76
2022/07/08 06:26:19;;;;;;;7.72;1.60;;;16.20;99.90;;;;;;5047089;28;20037;-74
2022/07/08 06:28:45;;;;;;;11.15;2.55;;;16.20;99.90;;;;;;5045434;28;20443;-75
2022/07/08 06:31:11;;;;;;;8.70;2.55;;;16.30;99.90;;;;;;5042243;28;20127;-77
2022/07/08 06:33:36;;;;;;;15.85;3.28;;;16.20;99.90;;;;;;5042602;28;20462;-76
2022/07/08 06:36:02;;;;;;;14.20;2.72;;;16.30;99.90;;;;;;5055738;28;20040;-75
2022/07/08 06:38:28;;;;;;;10.50;2.97;;;16.30;99.90;;;;;;5048813;28;20032;-75
2022/07/08 06:40:53;;;;;;;9.73;1.95;;;16.60;99.90;;;;;;5046460;28;20048;-76
2022/07/08 06:43:19;;;;;;;7.07;1.85;;;16.70;99.90;;;;;;5045471;28;20044;-75
2022/07/08 06:45:46;;;;;;;10.57;2.38;;;16.70;99.90;;;;;;5054375;28;20036;-76
2022/07/08 06:48:12;;;;;;;14.95;2.42;;;16.80;99.90;;;;;;5055011;28;20045;-76
2022/07/08 06:50:37;;;;;;;12.82;4.50;;;16.90;99.90;;;;;;5044211;28;20049;-76
2022/07/08 06:53:03;;;;;;;7.60;2.42;;;16.90;99.90;;;;;;5047343;28;20049;-76
2022/07/08 06:55:29;;;;;;;11.35;2.78;;;17.00;99.90;;;;;;5064913;28;20067;-78
2022/07/08 06:57:54;;;;;;;6.10;1.98;;;17.10;99.90;;;;;;5050869;28;20427;-76
2022/07/08 07:00:22;;;;;;;7.40;2.92;;;17.30;99.90;;;;;;5043907;28;20407;-75
2022/07/08 07:02:48;;;;;;;11.55;1.92;;;17.30;99.90;;;;;;5028316;28;20460;-75
2022/07/08 07:05:13;;;;;;;8.45;2.13;;;17.40;99.90;;;;;;5027296;28;20123;-75
2022/07/08 07:07:39;;;;;;;9.45;2.40;;;17.80;99.90;;;;;;5035609;28;20041;-75
2022/07/08 07:10:05;;;;;;;12.20;2.03;;;18.30;99.90;;;;;;5046657;28;20041;-76
2022/07/08 07:12:31;;;;;;;7.45;1.92;;;18.30;99.90;;;;;;5054470;28;20463;-75
2022/07/08 07:14:57;;;;;;;11.10;2.65;;;17.90;99.90;;;;;;5043350;28;20040;-75
2022/07/08 07:17:22;;;;;;;7.78;2.40;;;18.00;99.90;;;;;;5048417;28;20449;-73
2022/07/08 07:19:48;;;;;;;5.47;1.95;;;18.10;99.90;;;;;;5064110;28;20044;-75
2022/07/08 07:22:16;;;;;;;8.23;2.08;;;18.60;99.90;;;;;;5053552;28;20174;-75
2022/07/08 07:24:42;;;;;;;6.60;1.40;;;18.70;99.90;;;;;;5044842;28;20040;-75
2022/07/08 07:27:08;;;;;;;8.80;2.35;;;18.60;99.90;;;;;;5048860;28;20511;-75
2022/07/08 07:29:34;;;;;;;13.00;3.22;;;18.50;99.90;;;;;;5041780;28;20098;-80
2022/07/08 07:32:00;;;;;;;4.90;1.48;;;18.40;99.90;;;;;;5041563;28;20063;-76
2022/07/08 07:34:26;;;;;;;8.95;2.03;;;18.20;99.90;;;;;;5051131;28;20036;-75
2022/07/08 07:36:52;;;;;;;10.73;2.40;;;18.20;99.90;;;;;;5043401;28;20052;-75
2022/07/08 07:39:17;;;;;;;12.00;1.58;;;18.20;99.90;;;;;;5045075;28;20045;-76
2022/07/08 07:41:43;;;;;;;9.82;1.65;;;18.10;99.90;;;;;;5041638;28;20056;-75
2022/07/08 07:44:09;;;;;;;5.03;1.85;;;18.10;99.90;;;;;;5044370;28;20041;-75
2022/07/08 07:46:35;;;;;;;10.13;1.73;;;18.20;99.90;;;;;;5043145;28;20041;-75
2022/07/08 07:49:01;;;;;;;9.85;1.83;;;18.30;99.90;;;;;;5042262;28;20051;-75
2022/07/08 07:51:27;;;;;;;8.45;2.60;;;18.40;99.90;;;;;;5042599;28;20057;-76
2022/07/08 07:53:53;;;;;;;9.45;2.13;;;18.40;99.90;;;;;;5043220;28;20454;-75
2022/07/08 07:56:19;;;;;;;15.30;2.63;;;18.40;99.90;;;;;;5042414;28;20076;-74
2022/07/08 07:58:44;;;;;;;10.05;1.40;;;18.40;99.90;;;;;;5039294;28;20191;-76
2022/07/08 08:01:10;;;;;;;8.60;2.17;;;18.50;99.90;;;;;;5042181;28;20072;-76
2022/07/08 08:03:36;;;;;;;6.43;1.60;;;18.60;99.90;;;;;;5025702;28;20040;-74
2022/07/08 08:06:03;;;;;;;11.15;1.65;;;18.50;99.90;;;;;;5043495;28;20040;-74
2022/07/08 08:08:31;;;;;;;9.10;1.65;;;18.60;99.90;;;;;;5025926;28;20144;-75
2022/07/08 08:10:58;;;;;;;9.50;3.33;;;18.50;99.90;;;;;;5040747;28;20124;-76
2022/07/08 08:13:24;;;;;;;11.75;1.58;;;18.50;99.90;;;;;;5047713;28;20059;-76
2022/07/08 08:15:50;;;;;;;7.30;2.22;;;18.60;99.90;;;;;;5057761;28;20045;-74
2022/07/08 08:18:16;;;;;;;6.78;1.15;;;18.70;99.90;;;;;;5063097;28;20055;-75
2022/07/08 08:20:42;;;;;;;6.43;1.77;;;18.80;99.90;;;;;;5044106;28;20029;-76
2022/07/08 08:23:08;;;;;;;11.73;1.42;;;18.70;99.90;;;;;;5043574;28;20063;-74
2022/07/08 08:25:35;;;;;;;10.23;1.63;;;18.80;99.90;;;;;;5043461;28;20049;-74
2022/07/08 08:28:00;;;;;;;9.73;2.05;;;18.80;99.90;;;;;;5044636;28;20041;-74
2022/07/08 08:30:26;;;;;;;10.95;1.65;;;18.60;99.90;;;;;;5042810;28;20616;-75
2022/07/08 08:32:52;;;;;;;7.65;2.10;;;18.70;99.90;;;;;;5041751;28;20083;-76
2022/07/08 08:35:18;;;;;;;9.57;2.30;;;18.60;99.90;;;;;;5045593;28;20037;-75
2022/07/08 08:37:43;;;;;;;13.02;3.08;;;18.70;99.90;;;;;;5041851;28;20407;-76
2022/07/08 08:40:11;;;;;;;9.07;1.65;;;18.70;99.90;;;;;;5048823;28;20036;-78
2022/07/08 08:42:38;;;;;;;11.40;2.00;;;18.70;99.90;;;;;;5062358;28;20070;-78
2022/07/08 08:45:05;;;;;;;5.80;1.60;;;18.60;99.90;;;;;;5055417;28;20492;-78
2022/07/08 08:47:32;;;;;;;11.60;3.45;;;18.80;99.90;;;;;;5049524;28;20041;-78
2022/07/08 08:52:49;;;;;;;8.15;2.45;;;18.80;99.90;;;;;;5047120;28;20102;-75
2022/07/08 08:55:26;;;;;;;7.45;2.00;;;18.80;99.90;;;;;;5028402;28;20053;-77
2022/07/08 08:57:58;;;;;;;5.20;2.15;;;19.00;99.90;;;;;;5027702;28;20049;-76
2022/07/08 09:00:29;;;;;;;7.13;1.60;;;19.00;99.90;;;;;;5061984;28;20048;-78
2022/07/08 09:02:56;;;;;;;9.50;2.47;;;19.00;99.90;;;;;;5049697;28;20045;-77
2022/07/08 09:05:23;;;;;;;12.45;2.10;;;19.30;99.90;;;;;;5053657;28;20131;-76
2022/07/08 09:07:49;;;;;;;10.02;1.92;;;19.50;99.90;;;;;;5060667;28;20041;-75
2022/07/08 09:10:16;;;;;;;7.72;2.33;;;19.50;99.90;;;;;;5066078;28;20084;-75
2022/07/08 09:13:02;;;;;;;9.88;1.65;;;19.50;99.90;;;;;;5063884;28;20089;-75
2022/07/08 09:15:34;;;;;;;8.15;2.03;;;19.50;99.90;;;;;;5052837;28;20403;-76
2022/07/08 09:18:00;;;;;;;5.68;1.92;;;19.50;99.90;;;;;;5045052;28;20550;-75
2022/07/08 09:20:27;;;;;;;8.95;2.00;;;19.20;99.90;;;;;;5045473;28;20124;-75
2022/07/08 09:22:58;;;;;;;10.25;2.33;;;19.40;99.90;;;;;;5046159;28;20037;-74
2022/07/08 09:25:24;;;;;;;7.80;1.40;;;19.40;99.90;;;;;;5029877;28;20119;-74
2022/07/08 09:27:49;;;;;;;5.25;0.90;;;19.50;99.90;;;;;;5044273;28;20120;-75
2022/07/08 09:30:15;;;;;;;5.88;1.25;;;19.60;99.90;;;;;;5046050;28;20045;-75
2022/07/08 09:32:59;;;;;;;8.90;1.95;;;19.60;99.90;;;;;;5046919;28;20090;-76
2022/07/08 09:35:36;;;;;;;10.88;2.17;;;19.60;99.90;;;;;;5052288;28;20037;-76
2022/07/08 09:38:09;;;;;;;7.45;1.70;;;19.60;99.90;;;;;;5065312;28;20059;-76
2022/07/08 09:40:36;;;;;;;4.97;1.67;;;19.70;99.90;;;;;;5047342;28;20457;-77
2022/07/08 09:43:13;;;;;;;6.13;1.50;;;19.90;99.90;;;;;;5062408;28;20418;-79
2022/07/08 09:45:38;;;;;;;8.27;2.40;;;20.00;99.90;;;;;;5065936;28;20284;-76
2022/07/08 09:48:09;;;;;;;10.30;2.00;;;20.30;99.90;;;;;;5043001;28;20059;-77
2022/07/08 09:50:38;;;;;;;7.43;1.95;;;20.20;99.90;;;;;;5047261;28;20048;-77
2022/07/08 09:53:11;;;;;;;5.15;2.03;;;20.30;99.90;;;;;;5045640;28;20539;-76
2022/07/08 09:55:39;;;;;;;14.25;3.33;;;20.20;99.90;;;;;;5050773;28;20395;-76
2022/07/08 09:58:06;;;;;;;2.45;1.05;;;20.20;99.90;;;;;;5044954;28;20045;-76
2022/07/08 10:00:33;;;;;;;6.10;2.20;;;20.10;99.90;;;;;;5047056;28;20423;-76
2022/07/08 10:03:04;;;;;;;5.75;1.65;;;20.20;99.90;;;;;;5046046;28;20665;-76
2022/07/08 10:05:30;;;;;;;7.55;1.60;;;20.20;99.90;;;;;;5038915;28;20037;-77
2022/07/08 10:07:56;;;;;;;5.35;1.73;;;20.30;99.90;;;;;;5043177;28;20037;-74
2022/07/08 10:10:24;;;;;;;3.80;1.05;;;20.30;99.90;;;;;;5034790;28;20056;-78
2022/07/08 10:12:53;;;;;;;9.50;2.47;;;20.40;99.90;;;;;;5041671;28;20047;-77
2022/07/08 10:15:20;;;;;;;7.00;1.80;;;20.80;99.90;;;;;;5045962;28;20510;-73
2022/07/08 10:17:48;;;;;;;9.95;1.63;;;21.10;99.90;;;;;;5066123;28;20064;-78
2022/07/08 10:20:15;;;;;;;4.05;1.17;;;20.90;99.90;;;;;;5057873;28;20049;-78
2022/07/08 10:22:44;;;;;;;3.38;0.98;;;21.00;99.90;;;;;;5028645;28;20497;-78
2022/07/08 10:25:10;;;;;;;5.05;1.92;;;20.90;99.90;;;;;;5063269;28;20044;-78
2022/07/08 10:27:37;;;;;;;4.68;1.33;;;20.80;99.90;;;;;;5063138;28;20052;-77
2022/07/08 10:30:17;;;;;;;5.72;1.50;;;20.80;99.90;;;;;;5061748;28;20120;-78
2022/07/08 10:32:47;;;;;;;4.07;1.08;;;20.90;99.90;;;;;;5049958;28;20041;-77
2022/07/08 10:35:20;;;;;;;;;;;20.90;99.90;;;;;;5053994;28;20078;-77
2022/07/08 10:37:50;;;;;;;3.90;1.73;;;20.90;99.90;;;;;;5061840;28;19927;-76
2022/07/08 10:40:40;;;;;;;6.28;1.17;;;21.00;99.90;;;;;;5060018;28;20087;-76
2022/07/08 10:43:18;;;;;;;6.60;1.38;;;21.20;99.90;;;;;;5040756;28;20641;-77
2022/07/08 10:46:06;;;;;;;4.47;1.60;;;21.20;99.90;;;;;;5033592;28;20124;-80
2022/07/08 10:48:41;;;;;;;5.13;1.77;;;21.00;99.90;;;;;;5038822;28;20037;-81
2022/07/08 10:51:27;;;;;;;11.27;1.40;;;20.90;99.90;;;;;;5043113;28;20136;-80
2022/07/08 10:53:59;;;;;;;5.93;1.48;;;20.90;99.90;;;;;;5035958;28;20036;-79
2022/07/08 10:56:54;;;;;;;6.53;1.58;;;21.00;99.90;;;;;;5049375;28;20049;-79
2022/07/08 10:59:38;;;;;;;5.35;1.55;;;21.00;99.90;;;;;;5032583;28;20045;-79
2022/07/08 11:02:12;;;;;;;6.78;1.70;;;21.20;99.90;;;;;;5042412;28;20043;-79
2022/07/08 11:04:37;;;;;;;6.07;2.67;;;21.20;99.90;;;;;;5043019;28;20044;-79
2022/07/08 11:07:23;;;;;;;6.88;2.10;;;21.10;99.90;;;;;;5026735;28;20377;-78
2022/07/08 11:10:03;;;;;;;5.35;2.28;;;21.20;99.90;;;;;;5050198;28;20464;-80
2022/07/08 11:12:37;;;;;;;4.55;1.50;;;21.00;99.90;;;;;;5039215;28;20040;-80
2022/07/08 11:15:13;;;;;;;8.40;2.65;;;21.20;99.90;;;;;;5040434;28;20064;-77
2022/07/08 11:17:41;;;;;;;9.15;3.28;;;21.00;99.90;;;;;;5046014;28;20499;-80
2022/07/08 11:20:12;;;;;;;9.45;2.00;;;21.30;99.90;;;;;;5042815;28;20519;-81
2022/07/08 11:22:40;;;;;;;12.27;4.70;;;21.40;99.90;;;;;;5042636;28;20045;-81
2022/07/08 11:25:07;;;;;;;9.48;2.30;;;21.30;99.90;;;;;;5044746;28;20485;-81
2022/07/08 11:27:34;;;;;;;9.52;2.58;;;21.80;99.90;;;;;;5044542;28;20036;-81
2022/07/08 11:30:02;;;;;;;4.40;2.55;;;21.50;99.90;;;;;;5043178;28;20868;-80
2022/07/08 11:32:30;;;;;;;16.15;4.10;;;21.20;99.90;;;;;;5048002;28;20220;-81
2022/07/08 11:34:56;;;;;;;27.08;3.83;;;21.30;99.90;;;;;;5059586;28;20150;-80
2022/07/08 11:37:22;;;;;;;7.72;2.55;;;21.40;99.90;;;;;;5045474;28;20049;-81
2022/07/08 11:39:49;;;;;;;7.60;2.95;;;21.10;99.90;;;;;;5044551;28;20149;-84
2022/07/08 11:42:16;;;;;;;10.43;3.38;;;21.10;99.90;;;;;;5042184;28;20051;-75
2022/07/08 11:44:43;;;;;;;7.35;2.35;;;21.20;99.90;;;;;;5041534;28;20029;-78
2022/07/08 11:47:15;;;;;;;7.80;2.03;;;21.30;99.90;;;;;;5033654;28;20629;-78
2022/07/08 11:49:45;;;;;;;11.45;2.30;;;21.60;99.90;;;;;;5044106;28;20061;-80
2022/07/08 11:52:11;;;;;;;;;;;21.40;99.90;;;;;;5042328;28;20049;-79
2022/07/08 11:54:37;;;;;;;16.90;4.18;;;21.40;99.90;;;;;;5059772;28;20291;-80
2022/07/08 11:57:05;;;;;;;10.77;3.83;;;21.70;99.90;;;;;;5045542;28;20047;-79
2022/07/08 11:59:35;;;;;;;15.48;5.05;;;21.70;99.90;;;;;;5044822;28;20037;-79
2022/07/08 12:02:03;;;;;;;14.65;3.05;;;21.70;99.90;;;;;;5039987;28;20049;-80
2022/07/08 12:04:29;;;;;;;9.13;2.75;;;21.90;99.90;;;;;;5065729;28;20170;-79
2022/07/08 12:06:57;;;;;;;7.85;3.10;;;21.90;99.90;;;;;;5055065;28;20072;-78
2022/07/08 12:09:24;;;;;;;12.63;2.80;;;21.70;99.90;;;;;;5045089;28;20037;-80
2022/07/08 12:11:53;;;;;;;12.50;4.80;;;21.50;99.90;;;;;;5046324;28;20044;-78
2022/07/08 12:14:20;;;;;;;36.05;6.60;;;21.50;99.90;;;;;;5055188;28;20037;-73
2022/07/08 12:16:55;;;;;;;8.82;3.22;;;21.50;99.90;;;;;;5047636;28;20041;-79
2022/07/08 12:19:31;;;;;;;7.20;3.03;;;21.70;99.90;;;;;;5048175;28;20059;-78
2022/07/08 12:21:59;;;;;;;8.15;2.97;;;21.90;99.90;;;;;;5058767;28;20054;-77
2022/07/08 12:24:28;;;;;;;7.70;3.20;;;22.00;99.90;;;;;;5064037;28;20052;-76
2022/07/08 12:26:58;;;;;;;18.13;3.05;;;22.30;99.90;;;;;;5051966;28;20048;-84
2022/07/08 12:29:26;;;;;;;9.88;3.38;;;22.30;99.90;;;;;;5048409;28;20037;-77
2022/07/08 12:31:51;;;;;;;11.48;3.10;;;22.00;99.90;;;;;;5046688;28;20063;-78
2022/07/08 12:34:19;;;;;;;6.93;2.60;;;21.90;99.90;;;;;;5047613;28;20041;-80
2022/07/08 12:36:45;;;;;;;60.58;8.15;;;22.10;99.90;;;;;;5048645;28;20056;-78
2022/07/08 12:39:15;;;;;;;6.90;2.67;;;22.30;99.90;;;;;;5047830;28;20048;-78
2022/07/08 12:41:41;;;;;;;6.40;2.40;;;22.20;99.90;;;;;;5044820;28;20049;-79
2022/07/08 12:44:30;;;;;;;6.47;2.10;;;22.10;99.90;;;;;;5046018;28;20383;-79
2022/07/08 12:46:56;;;;;;;11.65;2.28;;;22.20;99.90;;;;;;5046558;28;20045;-79
2022/07/08 12:49:30;;;;;;;11.57;2.47;;;22.10;99.90;;;;;;5046058;28;20048;-78
2022/07/08 12:51:56;;;;;;;4.75;1.80;;;22.00;99.90;;;;;;5059074;28;20148;-78